createdAt,value
2019-06-20T00:00:46.648Z,71.00
2019-06-20T00:05:49.376Z,71.50
2019-06-20T00:10:52.411Z,71.60
2019-06-20T00:15:55.340Z,72.00
2019-06-20T00:20:58.159Z,72.10
2019-06-20T00:26:00.895Z,72.70
2019-06-20T00:31:03.634Z,73.50
2019-06-20T00:36:06.375Z,73.50
2019-06-20T00:41:09.102Z,73.50
2019-06-20T00:46:11.786Z,73.40
2019-06-20T00:51:14.505Z,72.80
2019-06-20T00:56:17.537Z,72.40
2019-06-20T01:01:20.228Z,72.10
2019-06-20T01:06:22.963Z,72.80
2019-06-20T01:11:25.616Z,73.00
2019-06-20T01:16:28.348Z,73.40
2019-06-20T01:21:31.012Z,73.50
2019-06-20T01:26:33.762Z,73.80
2019-06-20T01:31:36.510Z,74.10
2019-06-20T01:36:39.225Z,74.40
2019-06-20T01:41:41.960Z,73.80
2019-06-20T01:46:44.621Z,74.10
2019-06-20T01:51:47.292Z,73.50
2019-06-20T01:56:49.943Z,72.90
2019-06-20T02:01:52.641Z,72.60
2019-06-20T02:06:56.494Z,71.60
2019-06-20T02:11:59.239Z,71.30
2019-06-20T02:17:01.957Z,71.50
2019-06-20T02:22:04.758Z,71.90
2019-06-20T02:27:07.421Z,71.40
2019-06-20T02:32:10.253Z,71.40
2019-06-20T02:37:12.987Z,71.40
2019-06-20T02:42:15.731Z,70.80
2019-06-20T02:47:18.454Z,70.60
2019-06-20T02:52:21.534Z,69.90
2019-06-20T02:57:24.257Z,70.10
2019-06-20T03:02:26.918Z,70.10
2019-06-20T03:07:29.590Z,70.40
2019-06-20T03:12:32.352Z,70.40
2019-06-20T03:17:35.005Z,70.30
2019-06-20T03:22:38.018Z,70.40
2019-06-20T03:27:40.784Z,71.10
2019-06-20T03:32:43.487Z,70.90
2019-06-20T03:37:46.214Z,70.60
2019-06-20T03:42:48.947Z,70.20
2019-06-20T03:47:51.684Z,70.20
2019-06-20T03:52:54.492Z,69.90
2019-06-20T03:57:58.183Z,69.70
2019-06-20T04:03:01.115Z,69.70
2019-06-20T04:08:04.239Z,69.80
2019-06-20T04:13:06.984Z,69.20
2019-06-20T04:18:09.662Z,69.50
2019-06-20T04:23:12.335Z,69.20
2019-06-20T04:28:15.014Z,69.40
2019-06-20T04:33:17.702Z,68.80
2019-06-20T04:38:20.450Z,69.30
2019-06-20T04:43:23.122Z,69.10
2019-06-20T04:48:25.794Z,68.80
2019-06-20T04:53:28.487Z,69.10
2019-06-20T04:58:31.448Z,68.60
2019-06-20T05:03:34.205Z,68.30
2019-06-20T05:08:36.939Z,68.20
2019-06-20T05:13:39.638Z,67.80
2019-06-20T05:18:42.392Z,67.60
2019-06-20T05:23:45.519Z,67.40
2019-06-20T05:28:48.282Z,67.90
2019-06-20T05:33:50.945Z,68.30
2019-06-20T05:38:53.670Z,69.20
2019-06-20T05:43:56.406Z,69.00
2019-06-20T05:48:59.106Z,69.10
2019-06-20T05:54:02.239Z,68.80
2019-06-20T05:59:05.015Z,68.40
2019-06-20T06:04:07.743Z,68.20
2019-06-20T06:09:10.453Z,67.30
2019-06-20T06:14:13.880Z,67.10
2019-06-20T06:19:16.762Z,66.20
2019-06-20T06:24:19.495Z,64.00
2019-06-20T06:29:22.173Z,63.90
2019-06-20T06:34:24.840Z,64.30
2019-06-20T06:39:27.666Z,64.50
2019-06-20T06:44:31.778Z,64.80
2019-06-20T06:49:34.638Z,65.80
2019-06-20T06:54:37.374Z,65.10
2019-06-20T06:59:40.089Z,64.80
2019-06-20T07:04:42.801Z,65.40
2019-06-20T07:09:45.532Z,65.50
2019-06-20T07:14:48.547Z,66.40
2019-06-20T07:19:51.201Z,64.50
2019-06-20T07:24:53.879Z,64.50
2019-06-20T07:29:56.629Z,64.50
2019-06-20T07:34:59.633Z,64.80
2019-06-20T07:40:04.369Z,64.30
2019-06-20T07:45:09.071Z,63.40
2019-06-20T07:50:13.873Z,62.90
2019-06-20T07:55:16.768Z,63.20
2019-06-20T08:00:20.079Z,63.60
2019-06-20T08:05:22.953Z,64.00
2019-06-20T08:10:25.766Z,63.20
2019-06-20T08:15:28.553Z,63.80
2019-06-20T08:20:31.362Z,63.10
2019-06-20T08:25:34.365Z,62.20
2019-06-20T08:30:37.337Z,61.80
2019-06-20T08:35:40.000Z,61.30
2019-06-20T08:40:42.734Z,60.90
2019-06-20T08:45:45.529Z,60.80
2019-06-20T08:50:48.262Z,61.40
2019-06-20T08:55:51.054Z,62.00
2019-06-20T09:00:55.476Z,62.80
2019-06-20T09:05:58.382Z,63.50
2019-06-20T09:11:01.770Z,61.70
2019-06-20T09:16:24.778Z,60.80
2019-06-20T09:21:27.729Z,60.00
2019-06-20T09:26:30.392Z,60.40
2019-06-20T09:31:33.113Z,59.70
2019-06-20T09:36:35.850Z,58.90
2019-06-20T09:41:38.595Z,58.60
2019-06-20T09:46:41.385Z,58.60
2019-06-20T09:51:44.419Z,57.10
2019-06-20T09:56:49.913Z,58.80
2019-06-20T10:01:53.422Z,58.90
2019-06-20T10:06:56.670Z,58.30
2019-06-20T10:11:59.485Z,57.20
2019-06-20T10:17:02.191Z,58.50
2019-06-20T10:22:05.002Z,59.30
2019-06-20T10:27:07.736Z,57.70
2019-06-20T10:32:10.435Z,57.40
2019-06-20T10:37:13.213Z,57.40
2019-06-20T10:42:15.951Z,57.60
2019-06-20T10:47:31.698Z,57.30
2019-06-20T10:52:23.441Z,56.40
2019-06-20T10:57:26.855Z,56.90
2019-06-20T11:02:29.510Z,57.00
2019-06-20T11:07:32.554Z,56.60
2019-06-20T11:12:45.705Z,55.30
2019-06-20T11:17:40.321Z,53.40
2019-06-20T11:22:43.294Z,53.60
2019-06-20T11:27:47.309Z,52.20
2019-06-20T11:32:50.106Z,50.40
2019-06-20T11:37:52.844Z,51.30
2019-06-20T11:42:55.571Z,51.90
2019-06-20T11:47:58.226Z,52.80
2019-06-20T11:53:00.877Z,51.00
2019-06-20T11:58:03.661Z,51.70
2019-06-20T12:03:06.408Z,49.90
2019-06-20T12:08:09.140Z,49.90
2019-06-20T12:13:11.798Z,50.30
2019-06-20T12:18:14.463Z,48.60
2019-06-20T12:23:17.627Z,48.10
2019-06-20T12:28:20.301Z,45.40
2019-06-20T12:33:22.953Z,45.70
2019-06-20T12:38:25.704Z,45.70
2019-06-20T12:43:28.357Z,46.90
2019-06-20T12:48:31.009Z,47.30
2019-06-20T12:53:33.660Z,44.20
2019-06-20T12:58:37.326Z,46.10
2019-06-20T13:03:40.721Z,46.20
2019-06-20T13:08:43.643Z,47.50
2019-06-20T13:13:47.049Z,47.90
2019-06-20T13:18:50.452Z,47.80
2019-06-20T13:23:53.268Z,46.80
2019-06-20T13:29:03.736Z,44.50
2019-06-20T13:34:00.794Z,45.90
2019-06-20T13:39:06.198Z,45.00
2019-06-20T13:44:09.287Z,44.90
2019-06-20T13:49:12.030Z,43.50
2019-06-20T13:54:14.834Z,43.20
2019-06-20T13:59:17.595Z,44.00
2019-06-20T14:04:20.389Z,44.90
2019-06-20T14:09:23.116Z,45.00
2019-06-20T14:14:25.766Z,45.80
2019-06-20T14:19:28.420Z,47.40
2019-06-20T14:24:31.157Z,48.40
2019-06-20T14:29:33.892Z,48.50
2019-06-20T14:34:36.681Z,48.70
2019-06-20T14:39:39.669Z,49.50
2019-06-20T14:44:44.084Z,48.10
2019-06-20T14:49:48.291Z,48.40
2019-06-20T14:54:51.788Z,48.10
2019-06-20T14:59:54.592Z,47.90
2019-06-20T15:04:57.345Z,47.00
2019-06-20T15:10:00.019Z,44.40
2019-06-20T15:15:04.313Z,43.80
2019-06-20T15:20:07.483Z,42.60
2019-06-20T15:25:11.116Z,42.20
2019-06-20T15:30:14.217Z,41.50
2019-06-20T15:35:17.193Z,41.00
2019-06-20T15:40:19.982Z,43.20
2019-06-20T15:45:22.782Z,42.20
2019-06-20T15:50:25.518Z,40.90
2019-06-20T15:55:28.265Z,40.60
2019-06-20T16:00:32.259Z,39.80
2019-06-20T16:05:35.002Z,41.60
2019-06-20T16:10:37.672Z,42.10
2019-06-20T16:15:40.345Z,43.50
2019-06-20T16:20:43.079Z,43.60
2019-06-20T16:25:45.812Z,45.20
2019-06-20T16:30:48.481Z,44.50
2019-06-20T16:35:51.153Z,41.00
2019-06-20T16:40:54.322Z,42.00
2019-06-20T16:45:57.131Z,39.60
2019-06-20T16:50:59.798Z,38.80
2019-06-20T16:56:02.966Z,35.40
2019-06-20T17:01:05.765Z,33.60
2019-06-20T17:06:08.429Z,34.00
2019-06-20T17:11:11.174Z,36.20
2019-06-20T17:16:13.817Z,38.50
2019-06-20T17:21:16.570Z,37.80
2019-06-20T17:26:19.277Z,37.00
2019-06-20T17:31:22.045Z,36.30
2019-06-20T17:36:25.060Z,36.70
2019-06-20T17:41:27.825Z,38.20
2019-06-20T17:46:30.613Z,37.00
2019-06-20T17:51:33.307Z,37.10
2019-06-20T17:56:35.963Z,37.90
2019-06-20T18:01:38.710Z,39.80
2019-06-20T18:06:41.490Z,39.50
2019-06-20T18:11:44.233Z,36.80
2019-06-20T18:16:46.993Z,33.60
2019-06-20T18:21:49.813Z,33.90
2019-06-20T18:26:52.569Z,35.90
2019-06-20T18:31:55.369Z,37.60
2019-06-20T18:36:58.091Z,37.00
2019-06-20T18:42:00.837Z,37.20
2019-06-20T18:47:03.650Z,37.50
2019-06-20T18:52:07.259Z,38.40
2019-06-20T18:57:10.339Z,38.70
2019-06-20T19:02:13.151Z,39.00
2019-06-20T19:07:15.821Z,39.10
2019-06-20T19:12:18.955Z,39.30
2019-06-20T19:17:21.695Z,39.90
2019-06-20T19:22:24.439Z,39.80
2019-06-20T19:27:27.117Z,40.60
2019-06-20T19:32:29.776Z,40.70
2019-06-20T19:37:32.437Z,40.60
2019-06-20T19:42:35.109Z,40.80
2019-06-20T19:47:38.147Z,41.00
2019-06-20T19:52:41.019Z,41.30
2019-06-20T19:57:43.735Z,41.50
2019-06-20T20:02:46.394Z,42.10
2019-06-20T20:07:49.105Z,42.30
2019-06-20T20:12:51.912Z,42.00
2019-06-20T20:17:54.640Z,42.30
2019-06-20T20:22:57.455Z,42.50
2019-06-20T20:28:00.174Z,42.60
2019-06-20T20:33:03.088Z,43.10
2019-06-20T20:38:05.964Z,43.10
2019-06-20T20:43:08.759Z,43.40
2019-06-20T20:48:11.421Z,43.80
2019-06-20T20:53:14.145Z,44.10
2019-06-20T20:58:16.801Z,44.60
2019-06-20T21:03:19.476Z,45.00
2019-06-20T21:08:22.194Z,45.00
2019-06-20T21:13:24.946Z,45.40
2019-06-20T21:18:27.612Z,45.90
2019-06-20T21:23:30.412Z,45.90
2019-06-20T21:28:33.088Z,46.30
2019-06-20T21:33:35.812Z,46.30
2019-06-20T21:38:38.471Z,46.90
2019-06-20T21:43:41.135Z,47.60
2019-06-20T21:48:43.866Z,47.30
2019-06-20T21:53:46.530Z,47.50
2019-06-20T21:58:49.267Z,47.70
2019-06-20T22:03:51.941Z,48.40
2019-06-20T22:08:54.597Z,48.80
2019-06-20T22:13:57.323Z,48.70
2019-06-20T22:19:00.077Z,48.80
2019-06-20T22:24:02.748Z,48.10
2019-06-20T22:29:05.619Z,48.60
2019-06-20T22:34:08.351Z,49.10
2019-06-20T22:39:11.011Z,49.30
2019-06-20T22:44:13.663Z,49.10
2019-06-20T22:49:16.328Z,49.30
2019-06-20T22:54:18.996Z,49.80
2019-06-20T22:59:21.650Z,50.00
2019-06-20T23:04:24.301Z,50.30
2019-06-20T23:09:27.521Z,50.70
2019-06-20T23:14:30.442Z,50.80
2019-06-20T23:19:33.120Z,51.00
2019-06-20T23:24:35.857Z,51.60
2019-06-20T23:29:38.584Z,51.90
2019-06-20T23:34:41.242Z,52.50
2019-06-20T23:39:43.989Z,52.90
2019-06-20T23:44:46.729Z,53.00
2019-06-20T23:49:49.460Z,52.50
2019-06-20T23:54:52.182Z,52.40
2019-06-20T23:59:54.833Z,52.40
